createdAt,value
2022-10-21T00:01:08.666Z,-65
2022-10-21T00:03:37.272Z,-64
2022-10-21T00:06:06.211Z,-65
2022-10-21T00:08:34.738Z,-66
2022-10-21T00:11:07.590Z,-65
2022-10-21T00:13:39.713Z,-65
2022-10-21T00:16:11.416Z,-65
2022-10-21T00:18:42.020Z,-64
2022-10-21T00:21:13.681Z,-65
2022-10-21T00:23:42.295Z,-64
2022-10-21T00:26:14.071Z,-65
2022-10-21T00:28:42.554Z,-64
2022-10-21T00:31:12.798Z,-65
2022-10-21T00:33:41.415Z,-64
2022-10-21T00:36:14.817Z,-65
2022-10-21T00:38:45.072Z,-64
2022-10-21T00:41:17.445Z,-65
2022-10-21T00:44:02.127Z,-64
2022-10-21T00:46:39.245Z,-64
2022-10-21T00:49:17.962Z,-65
2022-10-21T00:51:50.788Z,-65
2022-10-21T00:54:21.742Z,-65
2022-10-21T00:56:55.790Z,-65
2022-10-21T00:59:27.646Z,-65
2022-10-21T01:01:56.160Z,-65
2022-10-21T01:04:24.759Z,-65
2022-10-21T01:06:53.496Z,-66
2022-10-21T01:09:22.820Z,-65
2022-10-21T01:11:52.440Z,-65
2022-10-21T01:14:46.356Z,-64
2022-10-21T01:17:46.717Z,-64
2022-10-21T01:20:47.646Z,-67
2022-10-21T01:23:58.250Z,-68
2022-10-21T01:27:10.840Z,-64
2022-10-21T01:30:12.411Z,-65
2022-10-21T01:33:21.915Z,-66
2022-10-21T01:35:57.050Z,-67
2022-10-21T01:38:35.740Z,-64
2022-10-21T01:41:14.460Z,-65
2022-10-21T01:43:56.105Z,-65
2022-10-21T01:46:31.487Z,-66
2022-10-21T01:49:08.978Z,-66
2022-10-21T01:51:38.925Z,-65
2022-10-21T01:54:11.480Z,-67
2022-10-21T01:56:43.249Z,-68
2022-10-21T01:59:14.125Z,-64
2022-10-21T02:01:44.930Z,-67
2022-10-21T02:04:17.086Z,-66
2022-10-21T02:06:45.531Z,-66
2022-10-21T02:09:13.843Z,-65
2022-10-21T02:11:46.878Z,-66
2022-10-21T02:14:21.838Z,-67
2022-10-21T02:16:53.497Z,-66
2022-10-21T02:19:23.088Z,-65
2022-10-21T02:21:55.531Z,-65
2022-10-21T02:24:37.616Z,-66
2022-10-21T02:27:06.357Z,-66
2022-10-21T02:29:39.260Z,-65
2022-10-21T02:32:26.855Z,-67
2022-10-21T02:35:16.134Z,-66
2022-10-21T02:37:53.367Z,-65
2022-10-21T02:40:27.284Z,-68
2022-10-21T02:43:00.560Z,-67
2022-10-21T02:45:28.671Z,-66
2022-10-21T02:47:57.195Z,-67
2022-10-21T02:50:26.628Z,-66
2022-10-21T02:52:54.605Z,-65
2022-10-21T02:55:22.600Z,-67
2022-10-21T02:57:50.724Z,-64
2022-10-21T03:00:18.910Z,-65
2022-10-21T03:02:46.930Z,-66
2022-10-21T03:05:15.175Z,-66
2022-10-21T03:07:44.633Z,-66
2022-10-21T03:10:12.590Z,-67
2022-10-21T03:12:40.577Z,-66
2022-10-21T03:15:09.884Z,-67
2022-10-21T03:17:38.191Z,-65
2022-10-21T03:20:07.529Z,-66
2022-10-21T03:22:35.558Z,-65
2022-10-21T03:25:06.698Z,-65
2022-10-21T03:27:34.765Z,-64
2022-10-21T03:30:03.202Z,-64
2022-10-21T03:32:31.210Z,-63
2022-10-21T03:34:59.203Z,-68
2022-10-21T03:37:27.333Z,-65
2022-10-21T03:39:55.322Z,-64
2022-10-21T03:42:24.594Z,-63
2022-10-21T03:44:52.600Z,-65
2022-10-21T03:47:20.584Z,-64
2022-10-21T03:49:48.600Z,-65
2022-10-21T03:52:16.751Z,-65
2022-10-21T03:54:44.905Z,-64
2022-10-21T03:57:12.870Z,-66
2022-10-21T03:59:42.197Z,-67
2022-10-21T04:02:10.140Z,-64
2022-10-21T04:04:38.628Z,-65
2022-10-21T04:07:06.593Z,-65
2022-10-21T04:09:34.618Z,-67
2022-10-21T04:12:02.634Z,-66
2022-10-21T04:14:30.614Z,-64
2022-10-21T04:17:06.942Z,-64
2022-10-21T04:19:35.563Z,-66
2022-10-21T04:22:03.584Z,-66
2022-10-21T04:24:31.587Z,-64
2022-10-21T04:26:59.631Z,-67
2022-10-21T04:29:27.733Z,-64
2022-10-21T04:34:30.640Z,-64
2022-10-21T04:37:01.155Z,-65
2022-10-21T04:39:32.256Z,-66
2022-10-21T04:42:00.465Z,-65
2022-10-21T04:44:28.450Z,-64
2022-10-21T04:46:56.534Z,-64
2022-10-21T04:49:24.509Z,-64
2022-10-21T04:51:53.850Z,-64
2022-10-21T04:54:21.820Z,-64
2022-10-21T04:56:49.824Z,-65
2022-10-21T04:59:17.828Z,-65
2022-10-21T05:01:45.832Z,-65
2022-10-21T05:04:13.987Z,-63
2022-10-21T05:06:41.990Z,-64
2022-10-21T05:09:11.403Z,-66
2022-10-21T05:11:39.448Z,-64
2022-10-21T05:14:07.428Z,-64
2022-10-21T05:16:35.600Z,-65
2022-10-21T05:19:03.605Z,-65
2022-10-21T05:21:31.637Z,-65
2022-10-21T05:23:59.576Z,-64
2022-10-21T05:26:30.881Z,-65
2022-10-21T05:28:58.930Z,-64
2022-10-21T05:31:27.725Z,-64
2022-10-21T05:33:55.671Z,-65
2022-10-21T05:36:24.250Z,-65
2022-10-21T05:38:52.828Z,-63
2022-10-21T05:41:21.529Z,-64
2022-10-21T05:43:50.843Z,-64
2022-10-21T05:46:18.880Z,-64
2022-10-21T05:51:25.381Z,-63
2022-10-21T05:53:53.718Z,-65
2022-10-21T05:56:22.203Z,-65
2022-10-21T05:58:52.031Z,-64
2022-10-21T06:01:20.067Z,-64
2022-10-21T06:03:48.131Z,-65
2022-10-21T06:06:16.165Z,-64
2022-10-21T06:08:44.353Z,-65
2022-10-21T06:11:15.432Z,-64
2022-10-21T06:13:44.218Z,-64
2022-10-21T06:16:15.445Z,-64
2022-10-21T06:18:44.351Z,-65
2022-10-21T06:21:12.453Z,-64
2022-10-21T06:23:40.405Z,-65
2022-10-21T06:26:12.762Z,-65
2022-10-21T06:28:44.721Z,-65
2022-10-21T06:31:17.193Z,-64
2022-10-21T06:33:45.524Z,-64
2022-10-21T06:36:13.658Z,-65
2022-10-21T06:38:41.960Z,-65
2022-10-21T06:41:13.743Z,-65
2022-10-21T06:43:42.599Z,-65
2022-10-21T06:46:15.258Z,-64
2022-10-21T06:48:43.503Z,-64
2022-10-21T06:51:16.876Z,-65
2022-10-21T06:53:45.878Z,-66
2022-10-21T06:56:17.352Z,-65
2022-10-21T06:58:48.011Z,-65
2022-10-21T07:01:34.405Z,-64
2022-10-21T07:04:09.310Z,-64
2022-10-21T07:06:38.027Z,-65
2022-10-21T07:09:08.308Z,-64
2022-10-21T07:11:36.984Z,-64
2022-10-21T07:14:05.646Z,-65
2022-10-21T07:16:38.610Z,-65
2022-10-21T07:19:07.923Z,-65
2022-10-21T07:21:35.892Z,-64
2022-10-21T07:24:03.970Z,-65
2022-10-21T07:26:34.753Z,-65
2022-10-21T07:29:03.111Z,-64
2022-10-21T07:31:37.846Z,-65
2022-10-21T07:34:08.810Z,-65
2022-10-21T07:36:40.232Z,-64
2022-10-21T07:39:12.268Z,-65
2022-10-21T07:41:43.591Z,-65
2022-10-21T07:44:12.456Z,-65
2022-10-21T07:46:44.698Z,-65
2022-10-21T07:49:14.745Z,-66
2022-10-21T07:51:45.087Z,-66
2022-10-21T07:54:14.179Z,-65
2022-10-21T07:56:45.061Z,-66
2022-10-21T07:59:14.769Z,-63
2022-10-21T08:01:45.777Z,-65
2022-10-21T08:04:16.723Z,-60
2022-10-21T08:06:45.943Z,-60
2022-10-21T08:09:15.151Z,-61
2022-10-21T08:11:43.690Z,-60
2022-10-21T08:14:12.973Z,-60
2022-10-21T08:16:43.340Z,-61
2022-10-21T08:19:20.264Z,-59
2022-10-21T08:21:48.693Z,-62
2022-10-21T08:24:17.299Z,-61
2022-10-21T08:26:45.292Z,-60
2022-10-21T08:29:13.353Z,-62
2022-10-21T08:31:42.706Z,-59
2022-10-21T08:34:10.895Z,-61
2022-10-21T08:36:40.013Z,-61
2022-10-21T08:39:08.521Z,-61
2022-10-21T08:42:03.438Z,-61
2022-10-21T08:44:41.447Z,-60
2022-10-21T08:47:22.012Z,-62
2022-10-21T08:50:01.573Z,-60
2022-10-21T08:52:40.259Z,-61
2022-10-21T08:55:17.417Z,-62
2022-10-21T08:57:45.628Z,-62
2022-10-21T09:00:20.152Z,-64
2022-10-21T09:03:08.653Z,-63
2022-10-21T09:06:02.577Z,-62
2022-10-21T09:08:42.567Z,-60
2022-10-21T09:11:26.833Z,-61
2022-10-21T09:14:38.097Z,-61
2022-10-21T09:17:25.109Z,-60
2022-10-21T09:20:10.796Z,-61
2022-10-21T09:22:53.913Z,-61
2022-10-21T09:25:32.429Z,-61
2022-10-21T09:28:10.039Z,-61
2022-10-21T09:30:39.506Z,-62
2022-10-21T09:33:19.232Z,-61
2022-10-21T09:35:54.673Z,-61
2022-10-21T09:38:30.097Z,-62
2022-10-21T09:41:03.295Z,-62
2022-10-21T09:43:32.087Z,-60
2022-10-21T09:46:00.337Z,-60
2022-10-21T09:48:55.096Z,-61
2022-10-21T09:51:33.504Z,-61
2022-10-21T09:54:10.843Z,-61
2022-10-21T09:56:46.260Z,-61
2022-10-21T09:59:18.808Z,-61
2022-10-21T10:01:49.014Z,-60
2022-10-21T10:04:26.813Z,-61
2022-10-21T10:06:56.385Z,-62
2022-10-21T10:09:30.059Z,-61
2022-10-21T10:12:02.752Z,-61
2022-10-21T10:14:35.171Z,-60
2022-10-21T10:17:33.618Z,-61
2022-10-21T10:20:20.720Z,-61
2022-10-21T10:23:17.556Z,-60
2022-10-21T10:25:52.641Z,-61
2022-10-21T10:28:26.581Z,-61
2022-10-21T10:30:57.768Z,-60
2022-10-21T10:33:31.057Z,-60
2022-10-21T10:36:05.218Z,-60
2022-10-21T10:38:41.748Z,-60
2022-10-21T10:41:13.267Z,-61
2022-10-21T10:43:48.229Z,-61
2022-10-21T10:46:26.806Z,-61
2022-10-21T10:48:58.769Z,-61
2022-10-21T10:51:30.247Z,-60
2022-10-21T10:54:16.387Z,-60
2022-10-21T10:56:52.637Z,-60
2022-10-21T10:59:33.432Z,-61
2022-10-21T11:02:27.066Z,-61
2022-10-21T11:05:17.657Z,-62
2022-10-21T11:07:50.747Z,-60
2022-10-21T11:10:33.932Z,-61
2022-10-21T11:13:05.305Z,-60
2022-10-21T11:15:56.273Z,-60
2022-10-21T11:18:34.385Z,-61
2022-10-21T11:21:27.647Z,-60
2022-10-21T11:24:24.190Z,-61
2022-10-21T11:27:00.887Z,-59
2022-10-21T11:29:52.214Z,-60
2022-10-21T11:32:31.804Z,-60
2022-10-21T11:35:15.668Z,-61
2022-10-21T11:38:02.852Z,-62
2022-10-21T11:40:41.083Z,-62
2022-10-21T11:43:32.948Z,-62
2022-10-21T11:46:12.642Z,-61
2022-10-21T11:49:17.439Z,-61
2022-10-21T11:51:55.922Z,-61
2022-10-21T11:55:24.374Z,-61
2022-10-21T11:58:08.077Z,-62
2022-10-21T12:00:49.999Z,-60
2022-10-21T12:03:44.733Z,-60
2022-10-21T12:06:32.052Z,-61
2022-10-21T12:09:05.474Z,-60
2022-10-21T12:11:42.428Z,-61
2022-10-21T12:14:31.350Z,-60
2022-10-21T12:17:07.996Z,-61
2022-10-21T12:19:37.650Z,-61
2022-10-21T12:22:06.344Z,-61
2022-10-21T12:24:48.842Z,-61
2022-10-21T12:27:28.295Z,-60
2022-10-21T12:30:14.247Z,-60
2022-10-21T12:32:56.720Z,-60
2022-10-21T12:38:45.388Z,-61
2022-10-21T12:41:30.654Z,-61
2022-10-21T12:44:13.644Z,-60
2022-10-21T12:46:44.671Z,-60
2022-10-21T12:49:32.618Z,-60
2022-10-21T12:52:12.449Z,-60
2022-10-21T12:54:56.857Z,-61
2022-10-21T12:57:29.966Z,-60
2022-10-21T13:00:51.413Z,-60
2022-10-21T13:03:22.990Z,-60
2022-10-21T13:06:06.943Z,-60
2022-10-21T13:08:54.712Z,-61
2022-10-21T13:11:38.648Z,-60
2022-10-21T13:14:44.459Z,-60
2022-10-21T13:17:28.885Z,-60
2022-10-21T13:20:18.079Z,-59
2022-10-21T13:22:49.893Z,-60
2022-10-21T13:25:26.332Z,-61
2022-10-21T13:28:05.055Z,-59
2022-10-21T13:30:36.639Z,-61
2022-10-21T13:33:07.462Z,-61
2022-10-21T13:35:44.371Z,-60
2022-10-21T13:38:25.195Z,-61
2022-10-21T13:40:57.475Z,-61
2022-10-21T13:43:29.529Z,-61
2022-10-21T13:46:07.893Z,-61
2022-10-21T13:48:41.016Z,-61
2022-10-21T13:51:18.919Z,-61
2022-10-21T13:53:49.841Z,-60
2022-10-21T13:56:24.091Z,-61
2022-10-21T13:58:53.297Z,-61
2022-10-21T14:01:25.375Z,-60
2022-10-21T14:03:54.688Z,-60
2022-10-21T14:06:31.276Z,-60
2022-10-21T14:09:04.056Z,-60
2022-10-21T14:11:37.582Z,-61
2022-10-21T14:14:10.747Z,-61
2022-10-21T14:16:41.985Z,-62
2022-10-21T14:19:19.750Z,-60
2022-10-21T14:21:53.559Z,-60
2022-10-21T14:24:35.907Z,-61
2022-10-21T14:27:05.078Z,-61
2022-10-21T14:29:36.959Z,-59
2022-10-21T14:32:06.700Z,-61
2022-10-21T14:34:37.169Z,-60
2022-10-21T14:37:20.105Z,-61
2022-10-21T14:39:49.393Z,-61
2022-10-21T14:42:21.658Z,-61
2022-10-21T14:44:56.003Z,-62
2022-10-21T14:47:27.611Z,-61
2022-10-21T14:49:59.674Z,-61
2022-10-21T14:52:36.762Z,-61
2022-10-21T14:55:10.816Z,-58
2022-10-21T14:57:57.381Z,-63
2022-10-21T15:00:30.406Z,-61
2022-10-21T15:03:00.263Z,-61
2022-10-21T15:05:35.653Z,-62
2022-10-21T15:08:31.986Z,-61
2022-10-21T15:11:24.293Z,-60
2022-10-21T15:14:06.535Z,-59
2022-10-21T15:19:16.544Z,-60
2022-10-21T15:21:51.546Z,-61
2022-10-21T15:24:24.299Z,-60
2022-10-21T15:26:55.338Z,-59
2022-10-21T15:29:33.733Z,-60
2022-10-21T15:32:02.634Z,-60
2022-10-21T15:34:30.817Z,-60
2022-10-21T15:36:58.935Z,-59
2022-10-21T15:39:26.909Z,-60
2022-10-21T15:41:58.451Z,-60
2022-10-21T15:44:30.036Z,-60
2022-10-21T15:47:02.503Z,-59
2022-10-21T15:49:34.890Z,-60
2022-10-21T15:52:02.884Z,-60
2022-10-21T15:54:31.053Z,-59
2022-10-21T15:57:02.373Z,-60
2022-10-21T15:59:33.292Z,-60
2022-10-21T16:02:02.227Z,-59
2022-10-21T16:04:30.286Z,-60
2022-10-21T16:06:58.359Z,-59
2022-10-21T16:09:30.347Z,-59
2022-10-21T16:12:01.588Z,-60
2022-10-21T16:14:31.238Z,-59
2022-10-21T16:17:00.187Z,-60
2022-10-21T16:19:28.989Z,-61
2022-10-21T16:21:57.790Z,-60
2022-10-21T16:24:25.871Z,-60
2022-10-21T16:26:53.927Z,-61
2022-10-21T16:29:26.006Z,-61
2022-10-21T16:31:54.227Z,-62
2022-10-21T16:34:22.211Z,-60
2022-10-21T16:36:50.126Z,-58
2022-10-21T16:39:20.040Z,-60
2022-10-21T16:41:47.953Z,-61
2022-10-21T16:44:16.540Z,-60
2022-10-21T16:46:52.528Z,-60
2022-10-21T16:49:25.254Z,-60
2022-10-21T16:51:54.661Z,-60
2022-10-21T16:54:24.606Z,-60
2022-10-21T16:56:55.105Z,-60
2022-10-21T16:59:24.212Z,-63
2022-10-21T17:01:53.504Z,-60
2022-10-21T17:04:21.405Z,-60
2022-10-21T17:06:49.473Z,-60
2022-10-21T17:09:17.463Z,-59
2022-10-21T17:11:45.393Z,-61
2022-10-21T17:14:19.837Z,-61
2022-10-21T17:16:48.438Z,-59
2022-10-21T17:19:17.780Z,-61
2022-10-21T17:21:45.763Z,-61
2022-10-21T17:24:18.556Z,-61
2022-10-21T17:26:47.034Z,-59
2022-10-21T17:29:15.585Z,-60
2022-10-21T17:31:44.771Z,-60
2022-10-21T17:34:28.093Z,-60
2022-10-21T17:36:56.292Z,-60
2022-10-21T17:39:24.524Z,-60
2022-10-21T17:41:52.720Z,-60
2022-10-21T17:44:20.771Z,-60
2022-10-21T17:46:51.811Z,-60
2022-10-21T17:49:19.820Z,-61
2022-10-21T17:51:50.127Z,-60
2022-10-21T17:54:20.508Z,-61
2022-10-21T17:56:51.966Z,-60
2022-10-21T17:59:20.119Z,-61
2022-10-21T18:01:48.135Z,-61
2022-10-21T18:04:16.140Z,-61
2022-10-21T18:06:44.167Z,-60
2022-10-21T18:09:13.704Z,-60
2022-10-21T18:11:41.766Z,-62
2022-10-21T18:14:09.806Z,-62
2022-10-21T18:16:37.826Z,-60
2022-10-21T18:19:05.917Z,-61
2022-10-21T18:21:33.931Z,-61
2022-10-21T18:24:01.942Z,-63
2022-10-21T18:26:32.551Z,-62
2022-10-21T18:29:03.911Z,-61
2022-10-21T18:31:35.693Z,-61
2022-10-21T18:34:05.641Z,-63
2022-10-21T18:36:34.369Z,-62
2022-10-21T18:39:02.507Z,-61
2022-10-21T18:41:32.109Z,-60
2022-10-21T18:44:04.606Z,-61
2022-10-21T18:46:33.345Z,-61
2022-10-21T18:49:05.019Z,-60
2022-10-21T18:51:33.174Z,-60
2022-10-21T18:54:01.380Z,-61
2022-10-21T18:56:30.840Z,-61
2022-10-21T18:58:59.094Z,-63
2022-10-21T19:01:27.591Z,-63
2022-10-21T19:03:56.343Z,-62
2022-10-21T19:06:39.819Z,-62
2022-10-21T19:09:13.833Z,-65
2022-10-21T19:11:44.301Z,-62
2022-10-21T19:14:14.406Z,-61
2022-10-21T19:16:43.989Z,-62
2022-10-21T19:19:12.669Z,-62
2022-10-21T19:21:41.118Z,-63
2022-10-21T19:24:10.331Z,-60
2022-10-21T19:26:42.389Z,-61
2022-10-21T19:29:14.090Z,-61
2022-10-21T19:31:43.698Z,-62
2022-10-21T19:34:13.823Z,-61
2022-10-21T19:36:42.158Z,-62
2022-10-21T19:39:10.483Z,-61
2022-10-21T19:41:38.855Z,-61
2022-10-21T19:44:09.129Z,-60
2022-10-21T19:46:37.572Z,-61
2022-10-21T19:49:07.640Z,-61
2022-10-21T19:51:36.837Z,-61
2022-10-21T19:54:06.496Z,-61
2022-10-21T19:56:35.567Z,-61
2022-10-21T19:59:05.031Z,-62
2022-10-21T20:01:35.432Z,-62
2022-10-21T20:04:05.327Z,-61
2022-10-21T20:06:36.467Z,-60
2022-10-21T20:09:08.525Z,-61
2022-10-21T20:11:37.185Z,-62
2022-10-21T20:14:06.353Z,-60
2022-10-21T20:16:39.252Z,-61
2022-10-21T20:19:08.045Z,-61
2022-10-21T20:21:37.310Z,-60
2022-10-21T20:24:06.538Z,-62
2022-10-21T20:26:34.807Z,-62
2022-10-21T20:29:03.096Z,-60
2022-10-21T20:31:32.083Z,-62
2022-10-21T20:34:01.471Z,-60
2022-10-21T20:36:32.419Z,-62
2022-10-21T20:39:02.944Z,-61
2022-10-21T20:41:34.707Z,-61
2022-10-21T20:44:04.791Z,-60
2022-10-21T20:46:35.306Z,-62
2022-10-21T20:49:06.777Z,-60
2022-10-21T20:51:36.990Z,-61
2022-10-21T20:54:08.038Z,-60
2022-10-21T20:56:39.596Z,-61
2022-10-21T20:59:11.047Z,-60
2022-10-21T21:01:42.423Z,-62
2022-10-21T21:04:15.102Z,-60
2022-10-21T21:06:46.427Z,-60
2022-10-21T21:12:05.051Z,-60
2022-10-21T21:14:33.382Z,-60
2022-10-21T21:17:01.386Z,-60
2022-10-21T21:19:30.780Z,-61
2022-10-21T21:21:58.971Z,-59
2022-10-21T21:24:27.186Z,-61
2022-10-21T21:26:55.185Z,-62
2022-10-21T21:29:24.000Z,-60
2022-10-21T21:31:51.991Z,-61
2022-10-21T21:34:20.006Z,-60
2022-10-21T21:36:49.345Z,-60
2022-10-21T21:39:18.049Z,-60
2022-10-21T21:41:46.531Z,-60
2022-10-21T21:44:14.569Z,-60
2022-10-21T21:46:42.592Z,-59
2022-10-21T21:49:10.598Z,-61
2022-10-21T21:51:38.680Z,-62
2022-10-21T21:54:08.591Z,-60
2022-10-21T21:56:37.047Z,-62
2022-10-21T21:59:05.444Z,-60
2022-10-21T22:01:33.563Z,-61
2022-10-21T22:04:02.278Z,-62
2022-10-21T22:06:33.256Z,-64
2022-10-21T22:09:02.673Z,-60
2022-10-21T22:11:33.544Z,-62
2022-10-21T22:14:01.706Z,-61
2022-10-21T22:16:30.960Z,-61
2022-10-21T22:19:01.524Z,-60
2022-10-21T22:21:31.955Z,-60
2022-10-21T22:24:00.342Z,-60
2022-10-21T22:26:29.738Z,-60
2022-10-21T22:28:59.068Z,-60
2022-10-21T22:31:30.276Z,-61
2022-10-21T22:34:00.535Z,-60
2022-10-21T22:36:28.743Z,-63
2022-10-21T22:38:56.776Z,-61
2022-10-21T22:41:24.827Z,-62
2022-10-21T22:43:52.884Z,-60
2022-10-21T22:46:33.504Z,-60
2022-10-21T22:49:03.062Z,-60
2022-10-21T22:51:31.063Z,-60
2022-10-21T22:53:59.078Z,-61
2022-10-21T22:56:28.570Z,-61
2022-10-21T22:58:57.756Z,-61
2022-10-21T23:01:30.250Z,-60
2022-10-21T23:04:02.472Z,-61
2022-10-21T23:06:31.188Z,-60
2022-10-21T23:08:59.852Z,-60
2022-10-21T23:11:27.991Z,-60
2022-10-21T23:14:02.754Z,-60
2022-10-21T23:16:33.500Z,-60
2022-10-21T23:19:01.544Z,-59
2022-10-21T23:21:29.650Z,-59
2022-10-21T23:23:57.936Z,-59
2022-10-21T23:26:26.429Z,-60
2022-10-21T23:28:54.528Z,-60
2022-10-21T23:31:22.681Z,-59
2022-10-21T23:33:52.040Z,-62
2022-10-21T23:36:20.359Z,-61
2022-10-21T23:38:48.421Z,-60
2022-10-21T23:41:16.398Z,-60
2022-10-21T23:43:44.378Z,-60
2022-10-21T23:46:12.357Z,-60
2022-10-21T23:48:40.404Z,-60
2022-10-21T23:51:09.713Z,-60
2022-10-21T23:53:38.217Z,-59
2022-10-21T23:56:07.410Z,-60
2022-10-21T23:58:35.415Z,-59
